Repülésmeteorológia

METAR


Utolsó módosítás időpontja: 2021-11-28 07:50:00
710
SAHU41 HASM 280800
METAR LHSM 280745Z AUTO 10004KT 060V150 0900 R16/1500U -SHRA FG VV002 06/06 Q0993 NOSIG

TAF


Utolsó módosítás időpontja: 2021-11-28 05:25:00
700
FCHU99 LHSM 280500 RRA
TAF LHSM 280515Z 2806/2815 08006KT 0800 FG OVC005 TEMPO 2806/2809
0100 FG DZ OVC001 BECMG 2809/2812 33006KT 4000 RA BR BKN010
OVC030